sensor_id;sensor_type;location;lat;lon;timestamp;pressure;altitude;pressure_sealevel;temperature;humidity
61488;BME280;47351;53.326;-6.298;2023-07-13T00:01:42;101026.64;;;13.87;76.00
61488;BME280;47351;53.326;-6.298;2023-07-13T00:04:32;101029.10;;;13.86;76.03
61488;BME280;47351;53.326;-6.298;2023-07-13T00:07:23;101029.41;;;13.83;76.15
61488;BME280;47351;53.326;-6.298;2023-07-13T00:10:14;101032.33;;;13.81;76.31
61488;BME280;47351;53.326;-6.298;2023-07-13T00:13:09;101035.95;;;13.78;76.34
61488;BME280;47351;53.326;-6.298;2023-07-13T00:16:00;101036.46;;;13.75;76.42
61488;BME280;47351;53.326;-6.298;2023-07-13T00:18:50;101036.70;;;13.73;76.55
61488;BME280;47351;53.326;-6.298;2023-07-13T00:21:42;101035.70;;;13.69;76.56
61488;BME280;47351;53.326;-6.298;2023-07-13T00:24:33;101032.77;;;13.64;76.54
61488;BME280;47351;53.326;-6.298;2023-07-13T00:27:25;101035.65;;;13.61;76.46
61488;BME280;47351;53.326;-6.298;2023-07-13T00:30:19;101035.03;;;13.60;76.68
61488;BME280;47351;53.326;-6.298;2023-07-13T00:33:10;101032.68;;;13.60;76.88
61488;BME280;47351;53.326;-6.298;2023-07-13T00:36:06;101035.17;;;13.60;77.08
61488;BME280;47351;53.326;-6.298;2023-07-13T00:38:58;101037.48;;;13.62;77.13
61488;BME280;47351;53.326;-6.298;2023-07-13T00:41:51;101034.60;;;13.64;77.14
61488;BME280;47351;53.326;-6.298;2023-07-13T00:47:46;101037.92;;;13.68;77.10
61488;BME280;47351;53.326;-6.298;2023-07-13T00:50:37;101039.98;;;13.69;77.11
61488;BME280;47351;53.326;-6.298;2023-07-13T00:53:30;101038.11;;;13.70;77.17
61488;BME280;47351;53.326;-6.298;2023-07-13T00:56:23;101036.97;;;13.70;77.13
61488;BME280;47351;53.326;-6.298;2023-07-13T00:59:14;101036.70;;;13.71;76.97
61488;BME280;47351;53.326;-6.298;2023-07-13T01:02:06;101039.13;;;13.70;76.95
61488;BME280;47351;53.326;-6.298;2023-07-13T01:04:58;101033.85;;;13.69;76.80
61488;BME280;47351;53.326;-6.298;2023-07-13T01:07:49;101033.58;;;13.68;76.86
61488;BME280;47351;53.326;-6.298;2023-07-13T01:10:41;101030.39;;;13.66;76.88
61488;BME280;47351;53.326;-6.298;2023-07-13T01:13:35;101028.30;;;13.64;76.88
61488;BME280;47351;53.326;-6.298;2023-07-13T01:16:27;101030.44;;;13.63;76.86
61488;BME280;47351;53.326;-6.298;2023-07-13T01:19:21;101031.31;;;13.63;76.99
61488;BME280;47351;53.326;-6.298;2023-07-13T01:22:25;101033.62;;;13.65;77.07
61488;BME280;47351;53.326;-6.298;2023-07-13T01:25:18;101031.92;;;13.67;77.14
61488;BME280;47351;53.326;-6.298;2023-07-13T01:28:09;101032.02;;;13.69;77.00
61488;BME280;47351;53.326;-6.298;2023-07-13T01:31:00;101027.89;;;13.71;76.86
61488;BME280;47351;53.326;-6.298;2023-07-13T01:33:51;101026.21;;;13.72;76.82
61488;BME280;47351;53.326;-6.298;2023-07-13T01:36:42;101026.05;;;13.70;76.84
61488;BME280;47351;53.326;-6.298;2023-07-13T01:39:33;101022.75;;;13.67;76.82
61488;BME280;47351;53.326;-6.298;2023-07-13T01:42:24;101020.70;;;13.65;76.76
61488;BME280;47351;53.326;-6.298;2023-07-13T01:45:15;101022.20;;;13.63;76.79
61488;BME280;47351;53.326;-6.298;2023-07-13T01:48:06;101023.07;;;13.60;76.75
61488;BME280;47351;53.326;-6.298;2023-07-13T01:50:57;101021.02;;;13.56;76.75
61488;BME280;47351;53.326;-6.298;2023-07-13T01:53:51;101020.85;;;13.52;76.88
61488;BME280;47351;53.326;-6.298;2023-07-13T01:56:42;101018.61;;;13.48;76.86
61488;BME280;47351;53.326;-6.298;2023-07-13T01:59:32;101020.70;;;13.44;77.02
61488;BME280;47351;53.326;-6.298;2023-07-13T02:02:23;101021.60;;;13.39;77.13
61488;BME280;47351;53.326;-6.298;2023-07-13T02:05:14;101021.77;;;13.34;77.12
61488;BME280;47351;53.326;-6.298;2023-07-13T02:08:05;101020.80;;;13.28;77.03
61488;BME280;47351;53.326;-6.298;2023-07-13T02:10:56;101018.48;;;13.25;77.34
61488;BME280;47351;53.326;-6.298;2023-07-13T02:13:46;101022.05;;;13.25;77.61
61488;BME280;47351;53.326;-6.298;2023-07-13T02:16:37;101022.64;;;13.28;77.67
61488;BME280;47351;53.326;-6.298;2023-07-13T02:19:28;101022.91;;;13.32;77.77
61488;BME280;47351;53.326;-6.298;2023-07-13T02:22:19;101021.30;;;13.37;77.63
61488;BME280;47351;53.326;-6.298;2023-07-13T02:25:09;101023.02;;;13.42;77.89
61488;BME280;47351;53.326;-6.298;2023-07-13T02:28:00;101022.98;;;13.48;77.81
61488;BME280;47351;53.326;-6.298;2023-07-13T02:30:51;101022.20;;;13.50;77.67
61488;BME280;47351;53.326;-6.298;2023-07-13T02:33:44;101024.69;;;13.52;77.53
61488;BME280;47351;53.326;-6.298;2023-07-13T02:36:34;101023.41;;;13.52;77.43
61488;BME280;47351;53.326;-6.298;2023-07-13T02:39:25;101024.59;;;13.51;77.34
61488;BME280;47351;53.326;-6.298;2023-07-13T02:42:16;101026.98;;;13.49;77.27
61488;BME280;47351;53.326;-6.298;2023-07-13T02:45:07;101027.89;;;13.47;77.39
61488;BME280;47351;53.326;-6.298;2023-07-13T02:47:58;101026.22;;;13.44;77.37
61488;BME280;47351;53.326;-6.298;2023-07-13T02:50:49;101022.98;;;13.41;77.38
61488;BME280;47351;53.326;-6.298;2023-07-13T02:53:39;101030.29;;;13.38;77.48
61488;BME280;47351;53.326;-6.298;2023-07-13T02:56:31;101028.67;;;13.35;77.68
61488;BME280;47351;53.326;-6.298;2023-07-13T02:59:22;101029.11;;;13.34;77.78
61488;BME280;47351;53.326;-6.298;2023-07-13T03:02:13;101026.52;;;13.35;78.02
61488;BME280;47351;53.326;-6.298;2023-07-13T03:05:04;101027.69;;;13.35;77.93
61488;BME280;47351;53.326;-6.298;2023-07-13T03:07:57;101033.48;;;13.35;78.07
61488;BME280;47351;53.326;-6.298;2023-07-13T03:10:48;101036.99;;;13.36;78.16
61488;BME280;47351;53.326;-6.298;2023-07-13T03:13:39;101030.58;;;13.37;78.34
61488;BME280;47351;53.326;-6.298;2023-07-13T03:16:31;101028.62;;;13.38;78.58
61488;BME280;47351;53.326;-6.298;2023-07-13T03:19:22;101030.50;;;13.39;78.47
61488;BME280;47351;53.326;-6.298;2023-07-13T03:22:13;101029.20;;;13.38;78.34
61488;BME280;47351;53.326;-6.298;2023-07-13T03:25:05;101023.11;;;13.35;78.43
61488;BME280;47351;53.326;-6.298;2023-07-13T03:27:56;101023.70;;;13.31;78.33
61488;BME280;47351;53.326;-6.298;2023-07-13T03:30:46;101025.33;;;13.28;78.52
61488;BME280;47351;53.326;-6.298;2023-07-13T03:33:39;101024.31;;;13.24;78.61
61488;BME280;47351;53.326;-6.298;2023-07-13T03:36:30;101026.33;;;13.20;78.79
61488;BME280;47351;53.326;-6.298;2023-07-13T03:39:25;101023.29;;;13.17;78.88
61488;BME280;47351;53.326;-6.298;2023-07-13T03:42:17;101031.11;;;13.12;78.82
61488;BME280;47351;53.326;-6.298;2023-07-13T03:45:09;101031.88;;;13.07;78.72
61488;BME280;47351;53.326;-6.298;2023-07-13T03:47:59;101032.11;;;13.02;78.99
61488;BME280;47351;53.326;-6.298;2023-07-13T03:50:50;101034.59;;;12.96;79.15
61488;BME280;47351;53.326;-6.298;2023-07-13T03:53:41;101037.36;;;12.91;79.12
61488;BME280;47351;53.326;-6.298;2023-07-13T03:56:34;101036.83;;;12.86;79.28
61488;BME280;47351;53.326;-6.298;2023-07-13T03:59:25;101038.86;;;12.82;79.53
61488;BME280;47351;53.326;-6.298;2023-07-13T04:02:16;101042.13;;;12.80;79.45
61488;BME280;47351;53.326;-6.298;2023-07-13T04:05:07;101043.80;;;12.80;79.63
61488;BME280;47351;53.326;-6.298;2023-07-13T04:07:57;101038.13;;;12.81;79.70
61488;BME280;47351;53.326;-6.298;2023-07-13T04:10:48;101036.52;;;12.84;79.90
61488;BME280;47351;53.326;-6.298;2023-07-13T04:13:39;101036.06;;;12.88;79.98
61488;BME280;47351;53.326;-6.298;2023-07-13T04:16:29;101033.98;;;12.94;80.14
61488;BME280;47351;53.326;-6.298;2023-07-13T04:19:20;101036.61;;;13.02;80.17
61488;BME280;47351;53.326;-6.298;2023-07-13T04:22:11;101039.77;;;13.10;80.14
61488;BME280;47351;53.326;-6.298;2023-07-13T04:25:01;101040.45;;;13.17;80.05
61488;BME280;47351;53.326;-6.298;2023-07-13T04:27:54;101042.28;;;13.21;79.69
61488;BME280;47351;53.326;-6.298;2023-07-13T04:30:45;101048.82;;;13.26;79.83
61488;BME280;47351;53.326;-6.298;2023-07-13T04:33:35;101050.04;;;13.31;79.83
61488;BME280;47351;53.326;-6.298;2023-07-13T04:36:26;101048.94;;;13.37;79.71
61488;BME280;47351;53.326;-6.298;2023-07-13T04:39:17;101048.27;;;13.39;79.37
61488;BME280;47351;53.326;-6.298;2023-07-13T04:42:08;101051.08;;;13.41;79.37
61488;BME280;47351;53.326;-6.298;2023-07-13T04:44:59;101053.67;;;13.40;79.10
61488;BME280;47351;53.326;-6.298;2023-07-13T04:47:49;101050.67;;;13.37;79.14
61488;BME280;47351;53.326;-6.298;2023-07-13T04:50:40;101052.98;;;13.32;79.13
61488;BME280;47351;53.326;-6.298;2023-07-13T04:53:34;101059.98;;;13.29;79.23
61488;BME280;47351;53.326;-6.298;2023-07-13T04:56:25;101065.16;;;13.26;79.39
61488;BME280;47351;53.326;-6.298;2023-07-13T04:59:16;101069.04;;;13.23;79.42
61488;BME280;47351;53.326;-6.298;2023-07-13T05:02:06;101067.08;;;13.21;79.48
61488;BME280;47351;53.326;-6.298;2023-07-13T05:04:58;101066.88;;;13.21;79.68
61488;BME280;47351;53.326;-6.298;2023-07-13T05:07:49;101058.52;;;13.22;79.73
61488;BME280;47351;53.326;-6.298;2023-07-13T05:10:42;101058.59;;;13.23;79.71
61488;BME280;47351;53.326;-6.298;2023-07-13T05:13:33;101059.48;;;13.23;79.70
61488;BME280;47351;53.326;-6.298;2023-07-13T05:16:24;101065.89;;;13.24;79.70
61488;BME280;47351;53.326;-6.298;2023-07-13T05:19:18;101070.28;;;13.25;79.65
61488;BME280;47351;53.326;-6.298;2023-07-13T05:22:13;101070.75;;;13.27;79.82
61488;BME280;47351;53.326;-6.298;2023-07-13T05:25:04;101074.11;;;13.31;79.72
61488;BME280;47351;53.326;-6.298;2023-07-13T05:27:55;101074.21;;;13.38;79.81
61488;BME280;47351;53.326;-6.298;2023-07-13T05:30:49;101078.42;;;13.52;79.98
61488;BME280;47351;53.326;-6.298;2023-07-13T05:33:46;101071.41;;;13.69;79.91
61488;BME280;47351;53.326;-6.298;2023-07-13T05:36:37;101071.99;;;13.87;80.02
61488;BME280;47351;53.326;-6.298;2023-07-13T05:39:35;101070.45;;;14.04;79.89
61488;BME280;47351;53.326;-6.298;2023-07-13T05:42:26;101063.48;;;14.17;79.56
61488;BME280;47351;53.326;-6.298;2023-07-13T05:45:21;101063.52;;;14.28;79.32
61488;BME280;47351;53.326;-6.298;2023-07-13T05:48:11;101067.55;;;14.38;79.28
61488;BME280;47351;53.326;-6.298;2023-07-13T05:51:03;101071.09;;;14.48;79.21
61488;BME280;47351;53.326;-6.298;2023-07-13T05:53:54;101073.86;;;14.57;78.69
61488;BME280;47351;53.326;-6.298;2023-07-13T05:56:44;101069.90;;;14.62;78.44
61488;BME280;47351;53.326;-6.298;2023-07-13T05:59:35;101068.05;;;14.70;78.44
61488;BME280;47351;53.326;-6.298;2023-07-13T06:02:26;101067.42;;;14.79;78.39
61488;BME280;47351;53.326;-6.298;2023-07-13T06:05:16;101072.63;;;14.82;78.02
61488;BME280;47351;53.326;-6.298;2023-07-13T06:08:07;101079.77;;;14.80;77.77
61488;BME280;47351;53.326;-6.298;2023-07-13T06:11:02;101081.46;;;14.80;77.74
61488;BME280;47351;53.326;-6.298;2023-07-13T06:13:53;101083.88;;;14.82;77.93
61488;BME280;47351;53.326;-6.298;2023-07-13T06:16:43;101085.92;;;14.83;77.53
61488;BME280;47351;53.326;-6.298;2023-07-13T06:19:34;101090.77;;;14.85;77.27
61488;BME280;47351;53.326;-6.298;2023-07-13T06:22:25;101091.42;;;14.89;77.29
61488;BME280;47351;53.326;-6.298;2023-07-13T06:25:16;101096.69;;;14.93;77.18
61488;BME280;47351;53.326;-6.298;2023-07-13T06:28:07;101095.93;;;14.97;77.30
61488;BME280;47351;53.326;-6.298;2023-07-13T06:30:58;101101.08;;;14.97;77.10
61488;BME280;47351;53.326;-6.298;2023-07-13T06:33:49;101105.14;;;14.99;76.99
61488;BME280;47351;53.326;-6.298;2023-07-13T06:36:39;101107.03;;;15.12;76.91
61488;BME280;47351;53.326;-6.298;2023-07-13T06:39:30;101104.88;;;15.37;76.71
61488;BME280;47351;53.326;-6.298;2023-07-13T06:42:20;101102.36;;;15.52;76.61
61488;BME280;47351;53.326;-6.298;2023-07-13T06:45:11;101103.05;;;15.63;76.14
61488;BME280;47351;53.326;-6.298;2023-07-13T06:48:01;101101.11;;;15.74;75.77
61488;BME280;47351;53.326;-6.298;2023-07-13T06:50:52;101092.58;;;15.84;75.40
61488;BME280;47351;53.326;-6.298;2023-07-13T06:53:42;101093.62;;;15.97;74.67
61488;BME280;47351;53.326;-6.298;2023-07-13T06:56:33;101095.94;;;16.08;74.14
61488;BME280;47351;53.326;-6.298;2023-07-13T06:59:24;101100.52;;;16.14;73.98
61488;BME280;47351;53.326;-6.298;2023-07-13T07:02:14;101106.95;;;16.19;73.82
61488;BME280;47351;53.326;-6.298;2023-07-13T07:05:05;101106.08;;;16.16;73.43
61488;BME280;47351;53.326;-6.298;2023-07-13T07:07:56;101107.98;;;16.20;73.56
61488;BME280;47351;53.326;-6.298;2023-07-13T07:10:46;101113.65;;;16.28;73.48
61488;BME280;47351;53.326;-6.298;2023-07-13T07:13:40;101110.86;;;16.34;73.11
61488;BME280;47351;53.326;-6.298;2023-07-13T07:16:31;101116.33;;;16.40;72.75
61488;BME280;47351;53.326;-6.298;2023-07-13T07:19:21;101118.60;;;16.42;72.60
61488;BME280;47351;53.326;-6.298;2023-07-13T07:22:12;101120.59;;;16.45;72.60
61488;BME280;47351;53.326;-6.298;2023-07-13T07:25:03;101122.23;;;16.53;72.48
61488;BME280;47351;53.326;-6.298;2023-07-13T07:27:53;101118.52;;;16.61;72.48
61488;BME280;47351;53.326;-6.298;2023-07-13T07:30:47;101122.86;;;16.66;72.08
61488;BME280;47351;53.326;-6.298;2023-07-13T07:33:40;101120.33;;;16.77;72.01
61488;BME280;47351;53.326;-6.298;2023-07-13T07:36:30;101120.48;;;16.92;71.65
61488;BME280;47351;53.326;-6.298;2023-07-13T07:39:24;101126.02;;;17.01;71.25
61488;BME280;47351;53.326;-6.298;2023-07-13T07:42:14;101127.45;;;17.17;71.25
61488;BME280;47351;53.326;-6.298;2023-07-13T07:45:05;101131.41;;;17.37;70.78
61488;BME280;47351;53.326;-6.298;2023-07-13T07:47:56;101132.48;;;17.39;70.06
61488;BME280;47351;53.326;-6.298;2023-07-13T07:50:48;101130.77;;;17.34;69.95
61488;BME280;47351;53.326;-6.298;2023-07-13T07:53:39;101130.84;;;17.33;69.91
61488;BME280;47351;53.326;-6.298;2023-07-13T07:56:29;101135.91;;;17.25;69.83
61488;BME280;47351;53.326;-6.298;2023-07-13T07:59:23;101138.35;;;17.15;69.87
61488;BME280;47351;53.326;-6.298;2023-07-13T08:02:16;101133.88;;;17.13;69.99
61488;BME280;47351;53.326;-6.298;2023-07-13T08:05:10;101133.11;;;17.23;69.95
61488;BME280;47351;53.326;-6.298;2023-07-13T08:08:03;101138.80;;;17.38;69.77
61488;BME280;47351;53.326;-6.298;2023-07-13T08:10:54;101139.72;;;17.50;69.58
61488;BME280;47351;53.326;-6.298;2023-07-13T08:13:48;101140.13;;;17.63;69.28
61488;BME280;47351;53.326;-6.298;2023-07-13T08:16:42;101140.85;;;17.80;68.95
61488;BME280;47351;53.326;-6.298;2023-07-13T08:19:33;101137.98;;;18.06;68.61
61488;BME280;47351;53.326;-6.298;2023-07-13T08:22:24;101137.21;;;18.20;67.91
61488;BME280;47351;53.326;-6.298;2023-07-13T08:25:14;101133.35;;;18.29;67.44
61488;BME280;47351;53.326;-6.298;2023-07-13T08:28:05;101129.58;;;18.40;67.06
61488;BME280;47351;53.326;-6.298;2023-07-13T08:30:55;101131.04;;;18.40;66.62
61488;BME280;47351;53.326;-6.298;2023-07-13T08:33:49;101134.15;;;18.37;66.05
61488;BME280;47351;53.326;-6.298;2023-07-13T08:36:40;101134.39;;;18.41;66.02
61488;BME280;47351;53.326;-6.298;2023-07-13T08:39:31;101140.90;;;18.50;65.42
61488;BME280;47351;53.326;-6.298;2023-07-13T08:42:26;101143.08;;;18.38;65.51
61488;BME280;47351;53.326;-6.298;2023-07-13T08:45:22;101138.27;;;18.28;65.57
61488;BME280;47351;53.326;-6.298;2023-07-13T08:48:15;101137.80;;;18.40;65.39
61488;BME280;47351;53.326;-6.298;2023-07-13T08:51:11;101133.88;;;18.55;64.96
61488;BME280;47351;53.326;-6.298;2023-07-13T08:54:12;101131.69;;;18.66;64.44
61488;BME280;47351;53.326;-6.298;2023-07-13T08:57:09;101126.08;;;18.98;63.23
61488;BME280;47351;53.326;-6.298;2023-07-13T09:00:00;101113.27;;;20.55;60.47
61488;BME280;47351;53.326;-6.298;2023-07-13T09:02:54;101113.77;;;21.29;59.35
61488;BME280;47351;53.326;-6.298;2023-07-13T09:05:47;101110.73;;;22.54;58.06
61488;BME280;47351;53.326;-6.298;2023-07-13T09:08:46;101107.79;;;23.16;56.14
61488;BME280;47351;53.326;-6.298;2023-07-13T09:11:41;101110.17;;;24.00;54.39
61488;BME280;47351;53.326;-6.298;2023-07-13T09:14:36;101104.82;;;25.27;52.41
61488;BME280;47351;53.326;-6.298;2023-07-13T09:17:29;101100.16;;;26.63;50.09
61488;BME280;47351;53.326;-6.298;2023-07-13T09:20:22;101102.73;;;26.51;49.44
61488;BME280;47351;53.326;-6.298;2023-07-13T09:23:14;101106.08;;;25.59;49.87
61488;BME280;47351;53.326;-6.298;2023-07-13T09:26:09;101104.95;;;24.71;50.64
61488;BME280;47351;53.326;-6.298;2023-07-13T09:29:03;101104.90;;;23.98;51.15
61488;BME280;47351;53.326;-6.298;2023-07-13T09:32:00;101105.54;;;23.41;51.43
61488;BME280;47351;53.326;-6.298;2023-07-13T09:34:52;101109.70;;;22.94;51.20
61488;BME280;47351;53.326;-6.298;2023-07-13T09:37:43;101110.22;;;22.69;51.89
61488;BME280;47351;53.326;-6.298;2023-07-13T09:40:39;101113.71;;;22.47;51.94
61488;BME280;47351;53.326;-6.298;2023-07-13T09:43:30;101119.02;;;22.11;51.86
61488;BME280;47351;53.326;-6.298;2023-07-13T09:46:21;101121.02;;;21.93;51.74
61488;BME280;47351;53.326;-6.298;2023-07-13T09:49:12;101122.11;;;22.19;51.64
61488;BME280;47351;53.326;-6.298;2023-07-13T09:52:03;101117.91;;;23.05;50.52
61488;BME280;47351;53.326;-6.298;2023-07-13T09:54:54;101118.69;;;24.10;49.54
61488;BME280;47351;53.326;-6.298;2023-07-13T09:57:48;101116.09;;;25.08;47.67
61488;BME280;47351;53.326;-6.298;2023-07-13T10:00:39;101116.52;;;25.50;46.87
61488;BME280;47351;53.326;-6.298;2023-07-13T10:03:31;101108.79;;;26.64;44.92
61488;BME280;47351;53.326;-6.298;2023-07-13T10:06:27;101099.77;;;28.07;43.03
61488;BME280;47351;53.326;-6.298;2023-07-13T10:09:18;101099.45;;;29.11;41.30
61488;BME280;47351;53.326;-6.298;2023-07-13T10:12:14;101103.27;;;29.99;39.84
61488;BME280;47351;53.326;-6.298;2023-07-13T10:15:06;101105.04;;;29.33;39.63
61488;BME280;47351;53.326;-6.298;2023-07-13T10:18:12;101112.83;;;27.89;40.25
61488;BME280;47351;53.326;-6.298;2023-07-13T10:21:11;101115.41;;;28.06;39.99
61488;BME280;47351;53.326;-6.298;2023-07-13T10:24:23;101119.23;;;27.68;39.83
61488;BME280;47351;53.326;-6.298;2023-07-13T10:27:15;101117.89;;;27.10;40.55
61488;BME280;47351;53.326;-6.298;2023-07-13T10:30:09;101117.21;;;26.24;40.97
61488;BME280;47351;53.326;-6.298;2023-07-13T10:33:08;101117.56;;;25.33;41.50
61488;BME280;47351;53.326;-6.298;2023-07-13T10:36:05;101119.48;;;24.57;42.24
61488;BME280;47351;53.326;-6.298;2023-07-13T10:39:05;101117.66;;;25.52;41.91
61488;BME280;47351;53.326;-6.298;2023-07-13T10:41:57;101113.96;;;26.85;41.03
61488;BME280;47351;53.326;-6.298;2023-07-13T10:44:49;101116.16;;;26.71;40.29
61488;BME280;47351;53.326;-6.298;2023-07-13T10:47:40;101114.73;;;26.42;40.06
61488;BME280;47351;53.326;-6.298;2023-07-13T10:50:31;101110.77;;;26.57;39.75
61488;BME280;47351;53.326;-6.298;2023-07-13T10:53:28;101113.54;;;26.02;39.37
61488;BME280;47351;53.326;-6.298;2023-07-13T10:56:24;101108.08;;;27.05;38.49
61488;BME280;47351;53.326;-6.298;2023-07-13T10:59:23;101109.27;;;27.84;37.85
61488;BME280;47351;53.326;-6.298;2023-07-13T11:02:18;101105.96;;;27.40;38.25
61488;BME280;47351;53.326;-6.298;2023-07-13T11:05:18;101105.33;;;26.74;38.63
61488;BME280;47351;53.326;-6.298;2023-07-13T11:08:18;101112.70;;;25.89;39.19
61488;BME280;47351;53.326;-6.298;2023-07-13T11:14:30;101105.28;;;24.74;40.57
61488;BME280;47351;53.326;-6.298;2023-07-13T11:17:37;101104.13;;;24.52;40.69
61488;BME280;47351;53.326;-6.298;2023-07-13T11:20:41;101100.67;;;25.02;40.08
61488;BME280;47351;53.326;-6.298;2023-07-13T11:23:32;101096.70;;;26.60;38.64
61488;BME280;47351;53.326;-6.298;2023-07-13T11:26:39;101091.73;;;27.37;37.20
61488;BME280;47351;53.326;-6.298;2023-07-13T11:29:36;101095.00;;;27.11;37.33
61488;BME280;47351;53.326;-6.298;2023-07-13T11:32:30;101104.10;;;26.36;37.38
61488;BME280;47351;53.326;-6.298;2023-07-13T11:35:23;101104.41;;;25.37;38.29
61488;BME280;47351;53.326;-6.298;2023-07-13T11:38:15;101106.49;;;24.42;39.21
61488;BME280;47351;53.326;-6.298;2023-07-13T11:41:12;101113.82;;;23.57;40.25
61488;BME280;47351;53.326;-6.298;2023-07-13T11:44:12;101114.89;;;22.93;41.49
61488;BME280;47351;53.326;-6.298;2023-07-13T11:47:09;101115.61;;;22.50;42.15
61488;BME280;47351;53.326;-6.298;2023-07-13T11:50:00;101116.48;;;22.27;42.84
61488;BME280;47351;53.326;-6.298;2023-07-13T11:52:51;101114.89;;;22.19;43.42
61488;BME280;47351;53.326;-6.298;2023-07-13T11:55:45;101106.36;;;22.20;43.42
61488;BME280;47351;53.326;-6.298;2023-07-13T11:58:35;101106.94;;;22.15;43.54
61488;BME280;47351;53.326;-6.298;2023-07-13T12:01:27;101106.85;;;22.02;44.12
61488;BME280;47351;53.326;-6.298;2023-07-13T12:04:23;101106.19;;;21.83;44.58
61488;BME280;47351;53.326;-6.298;2023-07-13T12:07:16;101103.83;;;21.63;45.08
61488;BME280;47351;53.326;-6.298;2023-07-13T12:10:13;101103.48;;;21.58;45.56
61488;BME280;47351;53.326;-6.298;2023-07-13T12:13:08;101105.47;;;21.77;45.52
61488;BME280;47351;53.326;-6.298;2023-07-13T12:15:59;101097.27;;;22.22;45.16
61488;BME280;47351;53.326;-6.298;2023-07-13T12:18:49;101094.84;;;22.74;44.61
61488;BME280;47351;53.326;-6.298;2023-07-13T12:21:42;101096.92;;;23.08;43.91
61488;BME280;47351;53.326;-6.298;2023-07-13T12:24:34;101094.23;;;23.18;43.20
61488;BME280;47351;53.326;-6.298;2023-07-13T12:27:26;101092.58;;;23.19;43.06
61488;BME280;47351;53.326;-6.298;2023-07-13T12:30:27;101097.92;;;23.19;42.82
61488;BME280;47351;53.326;-6.298;2023-07-13T12:33:20;101093.35;;;23.18;43.11
61488;BME280;47351;53.326;-6.298;2023-07-13T12:36:10;101091.30;;;23.21;42.88
61488;BME280;47351;53.326;-6.298;2023-07-13T12:39:03;101085.70;;;23.27;43.11
61488;BME280;47351;53.326;-6.298;2023-07-13T12:42:08;101090.72;;;23.31;42.70
61488;BME280;47351;53.326;-6.298;2023-07-13T12:45:05;101094.27;;;23.30;42.57
61488;BME280;47351;53.326;-6.298;2023-07-13T12:48:05;101096.14;;;23.28;42.77
61488;BME280;47351;53.326;-6.298;2023-07-13T12:51:04;101092.23;;;23.17;43.00
61488;BME280;47351;53.326;-6.298;2023-07-13T12:54:05;101086.92;;;22.89;43.33
61488;BME280;47351;53.326;-6.298;2023-07-13T12:56:56;101084.36;;;22.64;43.90
61488;BME280;47351;53.326;-6.298;2023-07-13T12:59:51;101081.31;;;22.44;44.03
61488;BME280;47351;53.326;-6.298;2023-07-13T13:02:42;101079.42;;;22.28;44.13
61488;BME280;47351;53.326;-6.298;2023-07-13T13:05:33;101076.73;;;22.17;44.42
61488;BME280;47351;53.326;-6.298;2023-07-13T13:08:26;101081.53;;;22.24;44.37
61488;BME280;47351;53.326;-6.298;2023-07-13T13:11:16;101079.23;;;22.29;44.46
61488;BME280;47351;53.326;-6.298;2023-07-13T13:14:07;101074.79;;;22.46;44.76
61488;BME280;47351;53.326;-6.298;2023-07-13T13:16:58;101068.83;;;22.92;44.59
61488;BME280;47351;53.326;-6.298;2023-07-13T13:19:50;101063.44;;;23.37;43.86
61488;BME280;47351;53.326;-6.298;2023-07-13T13:22:42;101062.98;;;23.71;43.14
61488;BME280;47351;53.326;-6.298;2023-07-13T13:25:32;101057.80;;;24.48;41.57
61488;BME280;47351;53.326;-6.298;2023-07-13T13:28:23;101051.73;;;25.30;40.56
61488;BME280;47351;53.326;-6.298;2023-07-13T13:31:14;101050.11;;;25.60;40.15
61488;BME280;47351;53.326;-6.298;2023-07-13T13:34:06;101047.22;;;25.51;40.06
61488;BME280;47351;53.326;-6.298;2023-07-13T13:36:57;101046.81;;;25.18;40.03
61488;BME280;47351;53.326;-6.298;2023-07-13T13:39:49;101046.73;;;24.84;40.17
61488;BME280;47351;53.326;-6.298;2023-07-13T13:42:56;101044.70;;;24.67;40.48
61488;BME280;47351;53.326;-6.298;2023-07-13T13:45:49;101048.90;;;24.50;40.27
61488;BME280;47351;53.326;-6.298;2023-07-13T13:48:40;101044.98;;;24.28;40.47
61488;BME280;47351;53.326;-6.298;2023-07-13T13:51:31;101043.66;;;24.13;40.43
61488;BME280;47351;53.326;-6.298;2023-07-13T13:54:22;101045.09;;;24.09;40.49
61488;BME280;47351;53.326;-6.298;2023-07-13T13:57:13;101040.73;;;23.90;40.56
61488;BME280;47351;53.326;-6.298;2023-07-13T14:00:04;101040.62;;;23.67;41.05
61488;BME280;47351;53.326;-6.298;2023-07-13T14:02:55;101044.70;;;23.49;41.45
61488;BME280;47351;53.326;-6.298;2023-07-13T14:05:46;101044.73;;;23.26;41.55
61488;BME280;47351;53.326;-6.298;2023-07-13T14:08:39;101038.23;;;23.11;41.88
61488;BME280;47351;53.326;-6.298;2023-07-13T14:11:29;101038.52;;;23.31;41.92
61488;BME280;47351;53.326;-6.298;2023-07-13T14:14:21;101038.39;;;23.79;42.07
61488;BME280;47351;53.326;-6.298;2023-07-13T14:17:17;101033.02;;;24.53;41.58
61488;BME280;47351;53.326;-6.298;2023-07-13T14:20:11;101031.03;;;24.80;41.17
61488;BME280;47351;53.326;-6.298;2023-07-13T14:23:02;101031.60;;;24.86;41.12
61488;BME280;47351;53.326;-6.298;2023-07-13T14:25:53;101028.89;;;24.68;41.01
61488;BME280;47351;53.326;-6.298;2023-07-13T14:28:45;101029.46;;;24.42;41.67
61488;BME280;47351;53.326;-6.298;2023-07-13T14:31:35;101031.02;;;24.14;41.73
61488;BME280;47351;53.326;-6.298;2023-07-13T14:34:26;101030.80;;;23.86;42.04
61488;BME280;47351;53.326;-6.298;2023-07-13T14:37:17;101035.68;;;23.58;42.52
61488;BME280;47351;53.326;-6.298;2023-07-13T14:40:13;101037.98;;;23.30;42.93
61488;BME280;47351;53.326;-6.298;2023-07-13T14:43:04;101048.70;;;23.06;44.32
61488;BME280;47351;53.326;-6.298;2023-07-13T14:45:56;101052.74;;;22.69;45.56
61488;BME280;47351;53.326;-6.298;2023-07-13T14:48:47;101055.46;;;22.32;46.71
61488;BME280;47351;53.326;-6.298;2023-07-13T14:51:37;101059.08;;;22.02;47.74
61488;BME280;47351;53.326;-6.298;2023-07-13T14:54:28;101054.01;;;21.88;48.86
61488;BME280;47351;53.326;-6.298;2023-07-13T14:57:20;101050.03;;;21.92;49.16